»·PEaware :: N682RW KDAL-KMSY

N682RW :: KDAL-KMSY

FLIGHT INFORMATION

Flight Status: Arrived
Operator: Privately registered:
United States
More flights under this callsign
Pilot: Drew L. (13237)
Aircraft: MCDONNELL-DOUGLAS MD-83
(MD83)
More flights by this aircraft type
Origin: KDAL Dallas Love
United States
Destination: KMSY Armstrong New Orleans Intl
United States
More flights between these airports :: More routes between these airports
Route: LNDRE5 ZALEA SWB LSU AWDAD1
File this flight plan on PilotEdge
Remarks: RMK / SIMBRIEF
Altitude:
(Current/Filed)
33,000ft
Speed:
(Current/Filed)
448kts
Departed: 18-Apr-20 06:13 PM
Arrived: 18-Apr-20 07:15 PM
Distance/Time
Traveled:
379nm/1:02
Distance/Time
To Go:
Arrived

Flight Plot

Page will automatically refresh every two minutes.

Flight plan parsing failed; only flown route is shown


Map Options




Map Legend


Flown Route
Filed Route
Departure Airport
Arrival Airport
Navaid (VOR, NDB)
Fix

Horizontal Profiles

Position Reports

Time Latitude Longitude Heading Altitude Ground
Speed
18-Apr-20 18:11 32.851649 -96.862009 316 465ft 9kts
18-Apr-20 18:12 32.849365 -96.861167 135 470ft 66kts
18-Apr-20 18:13 32.818474 -96.824207 135 2495ft 194kts
18-Apr-20 18:14 32.773122 -96.767562 136 5972ft 262kts
18-Apr-20 18:15 32.720349 -96.705272 140 10125ft 283kts
18-Apr-20 18:16 32.679505 -96.614274 90 12837ft 364kts
18-Apr-20 18:17 32.683991 -96.489708 86 16071ft 391kts
18-Apr-20 18:18 32.694741 -96.357452 88 18896ft 413kts
18-Apr-20 18:19 32.689686 -96.218618 99 21366ft 429kts
18-Apr-20 18:20 32.679299 -96.074013 98 23537ft 448kts
18-Apr-20 18:22 32.669141 -95.923310 98 25486ft 466kts
18-Apr-20 18:23 32.658241 -95.767720 98 27225ft 481kts
18-Apr-20 18:24 32.645920 -95.606745 98 28820ft 495kts
18-Apr-20 18:25 32.633419 -95.441192 98 30192ft 509kts
18-Apr-20 18:26 32.620834 -95.271547 98 31375ft 521kts
18-Apr-20 18:27 32.608229 -95.098468 98 32359ft 531kts
18-Apr-20 18:28 32.595730 -94.922953 98 32944ft 531kts
18-Apr-20 18:29 32.579921 -94.748462 108 32971ft 531kts
18-Apr-20 18:30 32.531384 -94.585608 116 32980ft 524kts
18-Apr-20 18:31 32.483639 -94.422223 115 32992ft 525kts
18-Apr-20 18:32 32.436091 -94.258034 116 32993ft 523kts
18-Apr-20 18:33 32.388994 -94.094696 115 32989ft 524kts
18-Apr-20 18:34 32.341991 -93.930945 115 32982ft 524kts
18-Apr-20 18:35 32.295406 -93.767908 115 32985ft 524kts
18-Apr-20 18:36 32.248870 -93.604280 115 32987ft 524kts
18-Apr-20 18:37 32.202143 -93.441794 116 32990ft 522kts
18-Apr-20 18:38 32.153061 -93.280003 116 32975ft 523kts
18-Apr-20 18:39 32.104574 -93.118417 116 32985ft 523kts
18-Apr-20 18:39 32.064341 -92.983818 116 32998ft 522kts
18-Apr-20 18:41 32.008231 -92.795283 116 33009ft 522kts
18-Apr-20 18:42 31.948029 -92.644453 143 33035ft 489kts
18-Apr-20 18:42 31.859231 -92.568748 154 33018ft 474kts
18-Apr-20 18:43 31.754746 -92.473496 152 33008ft 474kts
18-Apr-20 18:45 31.634095 -92.361921 152 33011ft 476kts
18-Apr-20 18:45 31.547792 -92.282005 152 32994ft 474kts
18-Apr-20 18:46 31.444106 -92.185937 152 32996ft 475kts
18-Apr-20 18:47 31.340892 -92.090225 152 32995ft 474kts
18-Apr-20 18:48 31.238164 -91.994899 152 31915ft 467kts
18-Apr-20 18:49 31.137731 -91.901655 151 30297ft 459kts
18-Apr-20 18:50 31.037783 -91.808790 150 28713ft 460kts
18-Apr-20 18:51 30.936982 -91.715081 149 27124ft 467kts
18-Apr-20 18:52 30.835966 -91.621054 148 25562ft 471kts
18-Apr-20 18:53 30.733961 -91.526012 148 23996ft 455kts
18-Apr-20 18:54 30.639610 -91.438077 148 22245ft 415kts
18-Apr-20 18:55 30.553544 -91.357851 148 20435ft 386kts
18-Apr-20 18:56 30.470426 -91.280610 148 18614ft 377kts
18-Apr-20 18:57 30.389457 -91.205811 147 16805ft 368kts
18-Apr-20 18:58 30.310535 -91.132502 147 14994ft 357kts
18-Apr-20 18:59 30.234167 -91.061521 146 13175ft 346kts
18-Apr-20 19:00 30.167328 -90.999308 146 11545ft 301kts
18-Apr-20 19:01 30.109349 -90.944457 137 10624ft 263kts
18-Apr-20 19:02 30.099249 -90.860743 93 9281ft 265kts
18-Apr-20 19:03 30.098039 -90.777498 95 7769ft 254kts
18-Apr-20 19:04 30.096323 -90.699474 99 6212ft 231kts
18-Apr-20 19:05 30.081789 -90.636302 110 4920ft 207kts
18-Apr-20 19:06 30.067115 -90.575733 110 3949ft 182kts
18-Apr-20 19:07 30.053722 -90.519180 110 3903ft 186kts
18-Apr-20 19:08 30.041031 -90.465847 111 3032ft 154kts
18-Apr-20 19:09 30.030098 -90.420396 112 2317ft 143kts
18-Apr-20 19:10 30.019680 -90.377137 112 1586ft 132kts
18-Apr-20 19:11 30.010229 -90.338196 112 958ft 124kts
18-Apr-20 19:12 30.000980 -90.299659 109 311ft 125kts
18-Apr-20 19:13 29.992613 -90.265097 106 10ft 68kts
18-Apr-20 19:14 29.989513 -90.256317 135 10ft 15kts

Navigation Log

Ident Type
Flight plan parsing failed, navigation log unavailable